Time;durP1;ratioP1;P1;durP2;ratioP2;P2;SDS_P1;SDS_P2;PMS_P1;PMS_P2;Temp;Humidity;BMP_temperature;BMP_pressure;BME280_temperature;BME280_humidity;BME280_pressure;Samples;Min_cycle;Max_cycle;Signal;HPM_P1;HPM_P2
2021/05/08 00:00:54;;;;;;;16.70;7.40;;;17.60;90.70;;;;;;5093439;28;20395;-67
2021/05/08 00:03:58;;;;;;;18.38;7.80;;;17.50;91.00;;;;;;5094009;28;20047;-66
2021/05/08 00:07:02;;;;;;;13.40;7.88;;;17.40;91.10;;;;;;5094519;28;20043;-68
2021/05/08 00:10:09;;;;;;;12.95;7.65;;;17.30;91.30;;;;;;5093583;28;20059;-66
2021/05/08 00:13:13;;;;;;;14.40;8.05;;;17.30;91.20;;;;;;5094347;28;20431;-67
2021/05/08 00:16:17;;;;;;;15.40;8.73;;;17.20;91.40;;;;;;5094670;28;20098;-67
2021/05/08 00:19:22;;;;;;;16.35;8.55;;;17.20;91.30;;;;;;5093873;28;20534;-67
2021/05/08 00:22:26;;;;;;;12.63;8.48;;;17.20;91.20;;;;;;5093486;28;20051;-67
2021/05/08 00:25:30;;;;;;;15.52;7.82;;;17.20;91.00;;;;;;5094054;28;20396;-67
2021/05/08 00:28:35;;;;;;;12.65;7.85;;;17.20;91.40;;;;;;5093907;28;20043;-67
2021/05/08 00:31:39;;;;;;;12.55;7.70;;;17.20;90.80;;;;;;5094520;28;20047;-67
2021/05/08 00:34:44;;;;;;;13.35;7.22;;;17.20;90.70;;;;;;5094133;28;20043;-67
2021/05/08 00:37:49;;;;;;;14.00;6.85;;;17.30;90.40;;;;;;5092877;28;20058;-67
2021/05/08 00:40:53;;;;;;;13.13;7.57;;;17.30;90.00;;;;;;5093649;28;20054;-67
2021/05/08 00:43:58;;;;;;;11.13;7.35;;;17.30;89.30;;;;;;5093096;28;20043;-66
2021/05/08 00:47:03;;;;;;;14.73;8.20;;;17.00;90.10;;;;;;5093162;28;20146;-67
2021/05/08 00:50:09;;;;;;;18.52;7.40;;;16.90;90.60;;;;;;5093578;28;20395;-67
2021/05/08 00:53:13;;;;;;;14.40;8.10;;;16.80;90.50;;;;;;5093368;28;20043;-66
2021/05/08 00:56:21;;;;;;;13.95;7.88;;;16.80;90.50;;;;;;5092709;28;20051;-66
2021/05/08 00:59:27;;;;;;;12.93;6.82;;;16.90;90.00;;;;;;5093651;28;20494;-68
2021/05/08 01:02:32;;;;;;;11.27;6.45;;;17.00;89.20;;;;;;5092260;28;20055;-68
2021/05/08 01:05:38;;;;;;;13.52;7.22;;;17.10;88.90;;;;;;5093336;28;20043;-68
2021/05/08 01:08:50;;;;;;;12.07;6.80;;;17.20;88.30;;;;;;5092619;28;20043;-68
2021/05/08 01:11:55;;;;;;;12.00;7.15;;;17.10;88.40;;;;;;5092489;28;20059;-66
2021/05/08 01:15:02;;;;;;;10.85;6.93;;;17.00;89.00;;;;;;5080843;28;20054;-67
2021/05/08 01:18:07;;;;;;;14.75;6.28;;;17.00;88.80;;;;;;5091842;28;20047;-67
2021/05/08 01:21:14;;;;;;;11.35;6.35;;;17.00;88.50;;;;;;5092199;28;20038;-67
2021/05/08 01:24:19;;;;;;;12.73;6.90;;;16.90;88.10;;;;;;5092687;28;20047;-67
2021/05/08 01:27:23;;;;;;;9.35;6.18;;;17.00;88.00;;;;;;5092965;28;20050;-67
2021/05/08 01:30:35;;;;;;;9.23;6.50;;;16.90;88.40;;;;;;5091572;28;20411;-67
2021/05/08 01:33:43;;;;;;;10.88;6.68;;;16.80;89.10;;;;;;5092981;28;20047;-67
2021/05/08 01:36:48;;;;;;;18.58;6.28;;;16.80;89.10;;;;;;5092536;28;20039;-68
2021/05/08 01:39:53;;;;;;;10.60;6.70;;;16.60;89.20;;;;;;5091517;28;20387;-67
2021/05/08 01:42:59;;;;;;;13.50;6.05;;;16.60;89.90;;;;;;5092528;28;20510;-67
2021/05/08 01:46:05;;;;;;;13.52;5.63;;;16.50;90.10;;;;;;5091704;28;20502;-67
2021/05/08 01:49:11;;;;;;;15.27;6.53;;;16.60;90.10;;;;;;5091659;28;20070;-66
2021/05/08 01:52:16;;;;;;;9.75;6.20;;;16.60;89.00;;;;;;5092832;28;20042;-68
2021/05/08 01:55:23;;;;;;;9.13;5.88;;;16.50;89.30;;;;;;5091412;28;20054;-67
2021/05/08 01:58:27;;;;;;;9.77;6.55;;;16.50;89.30;;;;;;5091081;28;20043;-66
2021/05/08 02:01:34;;;;;;;13.73;6.40;;;16.40;89.70;;;;;;5092487;28;20098;-66
2021/05/08 02:04:40;;;;;;;9.25;5.75;;;16.40;89.50;;;;;;5091445;28;20051;-67
2021/05/08 02:07:44;;;;;;;10.73;6.55;;;16.60;88.90;;;;;;5079543;28;20043;-67
2021/05/08 02:10:51;;;;;;;8.27;5.47;;;16.60;88.60;;;;;;5090829;28;20206;-66
2021/05/08 02:13:55;;;;;;;9.35;5.95;;;16.40;89.50;;;;;;5092040;28;20055;-67
2021/05/08 02:16:59;;;;;;;9.68;5.35;;;16.30;89.80;;;;;;5090848;28;20039;-68
2021/05/08 02:20:26;;;;;;;10.93;6.13;;;16.40;89.70;;;;;;5091558;28;20039;-68
2021/05/08 02:23:30;;;;;;;13.35;6.72;;;16.50;89.00;;;;;;5091668;28;20058;-67
2021/05/08 02:26:37;;;;;;;9.55;5.90;;;16.50;88.80;;;;;;5091906;28;20047;-67
2021/05/08 02:29:44;;;;;;;10.68;6.43;;;16.50;89.00;;;;;;5091742;28;20055;-66
2021/05/08 02:32:48;;;;;;;12.65;6.95;;;16.30;90.00;;;;;;5090184;28;20039;-68
2021/05/08 02:35:53;;;;;;;13.05;7.55;;;16.20;90.30;;;;;;5091768;28;20403;-68
2021/05/08 02:38:58;;;;;;;14.07;8.55;;;16.30;90.70;;;;;;5090626;28;20047;-67
2021/05/08 02:42:04;;;;;;;15.30;8.98;;;16.40;90.70;;;;;;5091769;28;20059;-68
2021/05/08 02:45:13;;;;;;;13.93;8.48;;;16.40;90.90;;;;;;5090948;28;20102;-67
2021/05/08 02:48:17;;;;;;;14.82;9.32;;;16.20;91.10;;;;;;5090301;28;20046;-68
2021/05/08 02:51:28;;;;;;;;;;;16.20;91.80;;;;;;5092013;28;20055;-67
2021/05/08 02:54:32;;;;;;;15.18;8.98;;;16.30;91.60;;;;;;5091324;28;19915;-67
2021/05/08 02:57:37;;;;;;;14.20;9.68;;;16.20;91.60;;;;;;5091068;28;20043;-67
2021/05/08 03:00:41;;;;;;;13.57;8.98;;;16.10;91.80;;;;;;5078545;28;20780;-67
2021/05/08 03:03:50;;;;;;;16.25;9.95;;;16.00;92.10;;;;;;5091019;28;20383;-68
2021/05/08 03:06:54;;;;;;;15.45;10.13;;;16.00;92.30;;;;;;5090410;28;20063;-67
2021/05/08 03:09:59;;;;;;;16.80;10.07;;;15.80;92.10;;;;;;5078745;28;20051;-67
2021/05/08 03:13:04;;;;;;;18.08;9.85;;;15.60;92.60;;;;;;5090591;28;20043;-67
2021/05/08 03:16:09;;;;;;;18.02;9.80;;;15.70;92.80;;;;;;5090100;28;20043;-67
2021/05/08 03:19:13;;;;;;;22.85;9.60;;;15.80;92.60;;;;;;5078646;28;20066;-68
2021/05/08 03:22:17;;;;;;;11.95;8.75;;;15.80;92.40;;;;;;5078645;28;20040;-66
2021/05/08 03:25:22;;;;;;;16.23;8.50;;;15.80;92.50;;;;;;5090623;28;20474;-67
2021/05/08 03:28:27;;;;;;;48.13;10.13;;;15.90;92.00;;;;;;5090300;28;20471;-67
2021/05/08 03:31:32;;;;;;;19.27;9.20;;;15.90;92.10;;;;;;5090402;28;20122;-67
2021/05/08 03:34:37;;;;;;;16.48;8.75;;;15.90;92.00;;;;;;5078475;28;20051;-67
2021/05/08 03:37:41;;;;;;;17.70;8.60;;;16.00;91.80;;;;;;5078637;28;20229;-68
2021/05/08 03:40:45;;;;;;;13.60;8.18;;;16.00;91.50;;;;;;5091063;28;20400;-68
2021/05/08 03:43:50;;;;;;;15.38;9.20;;;15.90;91.20;;;;;;5093537;28;20051;-67
2021/05/08 03:46:54;;;;;;;16.83;8.70;;;15.80;91.60;;;;;;5094787;28;20047;-68
2021/05/08 03:49:58;;;;;;;14.90;8.70;;;15.80;91.50;;;;;;5095341;28;20043;-66
2021/05/08 03:53:02;;;;;;;17.73;9.35;;;15.70;91.60;;;;;;5094855;28;20047;-67
2021/05/08 03:56:06;;;;;;;14.65;9.10;;;15.70;91.80;;;;;;5094942;28;20051;-66
2021/05/08 03:59:11;;;;;;;19.67;8.85;;;15.70;91.90;;;;;;5095575;28;20055;-68
2021/05/08 04:02:15;;;;;;;17.50;9.38;;;15.60;91.90;;;;;;5093848;28;20396;-66
2021/05/08 04:05:20;;;;;;;17.23;9.95;;;15.50;92.50;;;;;;5094394;28;20051;-67
2021/05/08 04:08:24;;;;;;;17.02;9.30;;;15.50;92.50;;;;;;5095039;28;20051;-68
2021/05/08 04:11:29;;;;;;;15.82;9.98;;;15.50;92.60;;;;;;5094170;28;20071;-68
2021/05/08 04:14:33;;;;;;;12.50;8.90;;;15.60;92.40;;;;;;5094131;28;20047;-66
2021/05/08 04:17:37;;;;;;;13.10;8.85;;;15.70;91.90;;;;;;5094776;28;20114;-68
2021/05/08 04:20:43;;;;;;;12.93;8.20;;;15.60;91.60;;;;;;5094433;28;20050;-66
2021/05/08 04:23:47;;;;;;;13.73;8.80;;;15.40;91.60;;;;;;5093784;28;20498;-66
2021/05/08 04:26:51;;;;;;;16.58;8.50;;;15.40;91.50;;;;;;5095271;28;20051;-67
2021/05/08 04:29:56;;;;;;;20.80;9.57;;;15.60;91.40;;;;;;5094482;28;20051;-66
2021/05/08 04:33:00;;;;;;;12.85;7.93;;;15.70;91.10;;;;;;5094364;28;20035;-67
2021/05/08 04:36:04;;;;;;;13.52;6.70;;;16.10;90.40;;;;;;5094803;28;20047;-67
2021/05/08 04:39:08;;;;;;;14.45;7.18;;;16.50;88.20;;;;;;5094113;28;20039;-67
2021/05/08 04:42:14;;;;;;;16.17;7.85;;;16.80;86.70;;;;;;5094713;28;20039;-67
2021/05/08 04:45:18;;;;;;;12.02;7.72;;;17.00;85.90;;;;;;5093578;28;20059;-67
2021/05/08 04:48:24;;;;;;;17.33;7.95;;;17.40;84.20;;;;;;5093821;28;20047;-67
2021/05/08 04:51:28;;;;;;;17.88;7.97;;;17.70;82.90;;;;;;5094188;28;20055;-67
2021/05/08 04:54:32;;;;;;;21.63;7.88;;;17.60;82.70;;;;;;5093678;28;20395;-66
2021/05/08 04:57:38;;;;;;;14.55;7.10;;;17.50;83.70;;;;;;5093872;28;20400;-67
2021/05/08 05:00:42;;;;;;;17.92;6.70;;;17.80;82.40;;;;;;5093582;28;20047;-66
2021/05/08 05:03:46;;;;;;;15.77;7.00;;;18.80;79.70;;;;;;5094010;28;20047;-67
2021/05/08 05:06:50;;;;;;;13.00;7.38;;;20.00;75.70;;;;;;5094296;28;20075;-66
2021/05/08 05:09:54;;;;;;;16.70;7.28;;;21.10;72.50;;;;;;5093297;28;20494;-65
2021/05/08 05:13:01;;;;;;;18.92;8.52;;;21.70;70.60;;;;;;5094018;28;20055;-67
2021/05/08 05:16:06;;;;;;;19.20;9.98;;;21.90;69.50;;;;;;5094061;28;20047;-66
2021/05/08 05:19:10;;;;;;;25.73;9.90;;;21.10;70.90;;;;;;5094430;28;20043;-66
2021/05/08 05:22:14;;;;;;;22.63;11.52;;;20.50;73.70;;;;;;5093612;28;20047;-67
2021/05/08 05:25:19;;;;;;;21.42;11.60;;;20.30;73.80;;;;;;5093147;28;20059;-67
2021/05/08 05:28:27;;;;;;;15.02;9.75;;;19.90;74.80;;;;;;5093938;28;20038;-67
2021/05/08 05:31:31;;;;;;;21.42;10.52;;;20.00;75.00;;;;;;5094371;28;20043;-67
2021/05/08 05:34:35;;;;;;;17.13;9.40;;;20.30;74.90;;;;;;5092875;28;20407;-66
2021/05/08 05:37:39;;;;;;;27.17;14.70;;;20.50;73.50;;;;;;5093589;28;20506;-66
2021/05/08 05:40:44;;;;;;;22.65;14.68;;;20.70;72.60;;;;;;5092266;28;20522;-67
2021/05/08 05:43:50;;;;;;;16.73;10.13;;;20.70;72.50;;;;;;5093393;28;20047;-71
2021/05/08 05:46:55;;;;;;;13.07;8.10;;;20.40;72.30;;;;;;5092681;28;20046;-65
2021/05/08 05:49:59;;;;;;;10.73;6.90;;;20.30;73.00;;;;;;5092890;28;20055;-67
2021/05/08 05:53:04;;;;;;;12.82;6.20;;;20.20;73.50;;;;;;5092924;28;20395;-67
2021/05/08 05:56:09;;;;;;;19.92;6.82;;;20.30;72.30;;;;;;5092966;28;20051;-68
2021/05/08 05:59:13;;;;;;;17.98;6.07;;;20.30;71.90;;;;;;5092501;28;20055;-67
2021/05/08 06:02:17;;;;;;;9.18;5.97;;;20.30;72.00;;;;;;5092798;28;20047;-67
2021/05/08 06:05:21;;;;;;;14.90;6.40;;;20.40;71.70;;;;;;5091458;28;20043;-68
2021/05/08 06:08:25;;;;;;;9.13;4.90;;;20.70;71.00;;;;;;5093125;28;20059;-66
2021/05/08 06:11:29;;;;;;;11.32;5.45;;;21.00;69.20;;;;;;5092407;28;20051;-67
2021/05/08 06:14:33;;;;;;;11.90;6.47;;;21.50;68.30;;;;;;5092143;28;20565;-66
2021/05/08 06:17:38;;;;;;;21.05;6.15;;;21.90;67.10;;;;;;5091787;28;20047;-66
2021/05/08 06:20:42;;;;;;;12.65;6.00;;;22.20;66.50;;;;;;5091160;28;20058;-67
2021/05/08 06:23:46;;;;;;;18.40;5.75;;;22.50;66.50;;;;;;5092599;28;20102;-66
2021/05/08 06:26:50;;;;;;;12.85;6.40;;;22.70;66.00;;;;;;5092257;28;20055;-65
2021/05/08 06:29:54;;;;;;;11.65;5.88;;;22.70;66.60;;;;;;5092239;28;20109;-67
2021/05/08 06:32:58;;;;;;;13.88;6.30;;;22.50;65.50;;;;;;5091896;28;20090;-65
2021/05/08 06:36:02;;;;;;;16.38;4.90;;;22.50;66.00;;;;;;5091781;28;20055;-67
2021/05/08 06:39:06;;;;;;;8.50;3.80;;;22.90;66.30;;;;;;5091847;28;20051;-68
2021/05/08 06:42:13;;;;;;;12.55;4.30;;;23.10;63.80;;;;;;5091661;28;20043;-68
2021/05/08 06:45:18;;;;;;;11.35;3.50;;;23.20;64.80;;;;;;5092582;28;20795;-66
2021/05/08 06:48:23;;;;;;;8.80;3.90;;;23.60;64.20;;;;;;5091652;28;20047;-66
2021/05/08 06:51:30;;;;;;;7.53;2.85;;;23.80;62.80;;;;;;5091174;28;20610;-68
2021/05/08 06:54:34;;;;;;;17.08;4.72;;;24.00;63.70;;;;;;5091726;28;20050;-67
2021/05/08 06:57:39;;;;;;;7.60;2.55;;;24.30;63.10;;;;;;5092116;28;20107;-66
2021/05/08 07:00:44;;;;;;;6.43;2.63;;;24.50;61.20;;;;;;5090187;28;20400;-67
2021/05/08 07:03:48;;;;;;;5.28;2.42;;;24.80;61.10;;;;;;5092289;28;20051;-67
2021/05/08 07:06:53;;;;;;;14.15;2.95;;;25.00;62.00;;;;;;5091132;28;20047;-68
2021/05/08 07:09:58;;;;;;;8.35;2.75;;;25.40;59.70;;;;;;5091297;28;20055;-67
2021/05/08 07:13:02;;;;;;;8.35;2.72;;;25.60;60.00;;;;;;5092437;28;20051;-67
2021/05/08 07:16:06;;;;;;;9.48;2.70;;;25.90;59.80;;;;;;5091471;28;20058;-67
2021/05/08 07:19:11;;;;;;;18.15;3.38;;;26.10;58.80;;;;;;5094305;28;20047;-67
2021/05/08 07:22:15;;;;;;;15.05;2.55;;;26.20;57.80;;;;;;5096425;28;20039;-68
2021/05/08 07:25:22;;;;;;;6.35;2.85;;;26.40;57.40;;;;;;5095965;28;20075;-68
2021/05/08 07:28:26;;;;;;;9.30;3.00;;;26.60;56.80;;;;;;5095684;28;20043;-69
2021/05/08 07:31:30;;;;;;;8.35;2.55;;;26.90;55.90;;;;;;5095516;28;20047;-68
2021/05/08 07:34:34;;;;;;;11.60;3.05;;;27.10;54.00;;;;;;5093895;28;20069;-67
2021/05/08 07:37:40;;;;;;;14.88;2.20;;;27.10;54.40;;;;;;5095316;28;20644;-68
2021/05/08 07:40:48;;;;;;;9.52;2.30;;;27.10;54.30;;;;;;5095752;28;20047;-68
2021/05/08 07:43:53;;;;;;;16.48;3.08;;;27.10;54.90;;;;;;5094867;28;20047;-68
2021/05/08 07:46:59;;;;;;;5.38;2.90;;;27.20;54.70;;;;;;5095275;28;20047;-68
2021/05/08 07:50:03;;;;;;;11.73;3.85;;;27.40;55.20;;;;;;5094422;28;20422;-68
2021/05/08 07:53:07;;;;;;;10.15;3.58;;;27.60;55.20;;;;;;5095166;28;20039;-67
2021/05/08 07:56:12;;;;;;;13.90;4.10;;;27.70;54.80;;;;;;5095125;28;20407;-69
2021/05/08 07:59:17;;;;;;;4.78;2.35;;;27.80;55.50;;;;;;5095116;28;20047;-67
2021/05/08 08:02:22;;;;;;;9.63;2.50;;;28.10;54.40;;;;;;5094357;28;20392;-68
2021/05/08 08:05:28;;;;;;;10.35;2.70;;;28.00;51.40;;;;;;5094422;28;20411;-67
2021/05/08 08:08:32;;;;;;;8.52;1.95;;;27.70;52.80;;;;;;5095268;28;20043;-67
2021/05/08 08:11:37;;;;;;;7.97;2.55;;;27.80;53.20;;;;;;5094533;28;20059;-68
2021/05/08 08:14:41;;;;;;;4.50;1.95;;;27.90;51.80;;;;;;5094905;28;20047;-67
2021/05/08 08:17:46;;;;;;;12.32;2.78;;;27.90;51.70;;;;;;5094070;28;20055;-68
2021/05/08 08:20:50;;;;;;;7.72;3.15;;;27.90;50.90;;;;;;5095161;28;20043;-68
2021/05/08 08:23:53;;;;;;;6.00;2.53;;;27.80;50.50;;;;;;5093798;28;20050;-68
2021/05/08 08:26:58;;;;;;;10.02;2.67;;;27.50;51.40;;;;;;5095068;28;20051;-67
2021/05/08 08:30:06;;;;;;;12.27;3.33;;;27.30;51.60;;;;;;5093153;28;20063;-66
2021/05/08 08:33:10;;;;;;;6.75;2.75;;;27.40;51.60;;;;;;5094356;28;20051;-67
2021/05/08 08:36:14;;;;;;;5.45;3.45;;;27.30;51.50;;;;;;5094401;28;20051;-67
2021/05/08 08:39:18;;;;;;;6.55;2.35;;;27.30;52.30;;;;;;5094139;28;20040;-68
2021/05/08 08:42:22;;;;;;;8.77;2.60;;;27.60;51.10;;;;;;5092732;28;20123;-68
2021/05/08 08:45:27;;;;;;;5.57;2.30;;;27.70;50.80;;;;;;5081179;28;20400;-67
2021/05/08 08:48:31;;;;;;;8.45;2.08;;;27.90;50.40;;;;;;5094100;28;20051;-68
2021/05/08 08:51:36;;;;;;;6.50;2.33;;;27.80;49.30;;;;;;5093092;28;20127;-68
2021/05/08 08:54:40;;;;;;;5.63;2.20;;;27.60;49.70;;;;;;5094119;28;20051;-68
2021/05/08 08:57:46;;;;;;;5.90;2.03;;;27.60;50.30;;;;;;5094036;28;20499;-67
2021/05/08 09:00:59;;;;;;;4.50;1.77;;;27.60;49.50;;;;;;5093520;28;20043;-67
2021/05/08 09:04:03;;;;;;;8.45;2.40;;;27.40;50.20;;;;;;5094205;28;20059;-69
2021/05/08 09:07:08;;;;;;;3.67;1.88;;;27.40;50.20;;;;;;5093404;28;20039;-67
2021/05/08 09:10:29;;;;;;;12.32;2.53;;;27.60;50.90;;;;;;5093603;28;20039;-68
2021/05/08 09:13:33;;;;;;;;;;;27.70;49.30;;;;;;5094322;28;20043;-69
2021/05/08 09:16:37;;;;;;;4.88;2.05;;;27.70;49.50;;;;;;5092541;28;19931;-68
2021/05/08 09:19:45;;;;;;;11.68;2.20;;;27.40;48.50;;;;;;5093340;28;20060;-68
2021/05/08 09:22:51;;;;;;;4.90;2.00;;;27.10;48.90;;;;;;5093703;28;20486;-72
2021/05/08 09:26:08;;;;;;;4.45;1.92;;;26.90;48.80;;;;;;5080802;28;20059;-68
2021/05/08 09:29:23;;;;;;;3.50;1.80;;;27.00;49.60;;;;;;5093362;28;20047;-68
2021/05/08 09:32:35;;;;;;;1.92;1.40;;;26.70;48.70;;;;;;5092942;28;20051;-66
2021/05/08 09:35:39;;;;;;;4.15;1.63;;;26.60;49.30;;;;;;5093143;28;20515;-68
2021/05/08 09:38:45;;;;;;;5.47;2.13;;;26.80;50.00;;;;;;5092633;28;20043;-68
2021/05/08 09:41:50;;;;;;;7.28;2.08;;;26.90;49.00;;;;;;5092389;28;20046;-68
2021/05/08 09:44:58;;;;;;;10.40;2.55;;;26.70;49.70;;;;;;5092092;28;20372;-67
2021/05/08 09:48:15;;;;;;;5.00;2.00;;;26.60;49.40;;;;;;5093241;28;20043;-67
2021/05/08 09:51:29;;;;;;;7.80;2.20;;;26.70;50.50;;;;;;5092772;28;20537;-68
2021/05/08 09:54:33;;;;;;;5.57;2.38;;;26.70;49.90;;;;;;5081751;28;20043;-68
2021/05/08 09:57:37;;;;;;;6.57;2.47;;;26.90;50.10;;;;;;5092651;28;20095;-68
2021/05/08 10:00:42;;;;;;;6.13;2.90;;;27.00;50.90;;;;;;5093003;28;20039;-68
2021/05/08 10:03:47;;;;;;;8.32;3.03;;;27.00;48.90;;;;;;5092901;28;20059;-67
2021/05/08 10:07:05;;;;;;;8.13;2.90;;;26.80;49.10;;;;;;5093158;28;20051;-66
2021/05/08 10:10:09;;;;;;;10.32;3.30;;;26.90;49.40;;;;;;5092040;28;20208;-67
2021/05/08 10:13:13;;;;;;;5.65;2.67;;;27.00;50.00;;;;;;5091866;28;20039;-66
2021/05/08 10:16:17;;;;;;;14.57;4.30;;;27.10;49.50;;;;;;5092153;28;20518;-68
2021/05/08 10:19:21;;;;;;;9.88;2.80;;;27.20;50.20;;;;;;5092072;28;20391;-68
2021/05/08 10:22:33;;;;;;;5.63;2.72;;;27.30;48.70;;;;;;5092220;28;20047;-67
2021/05/08 10:25:39;;;;;;;4.15;2.67;;;27.20;48.80;;;;;;5092665;28;20055;-67
2021/05/08 10:28:43;;;;;;;6.93;2.85;;;27.10;49.20;;;;;;5091581;28;20054;-68
2021/05/08 10:31:47;;;;;;;9.88;3.78;;;27.10;49.90;;;;;;5091346;28;20058;-68
2021/05/08 10:34:53;;;;;;;6.15;3.05;;;27.20;49.60;;;;;;5092875;28;20047;-67
2021/05/08 10:38:27;;;;;;;9.80;3.60;;;27.00;49.20;;;;;;5092711;28;20395;-67
2021/05/08 10:41:53;;;;;;;7.75;2.83;;;27.10;49.40;;;;;;5092527;28;20039;-69
2021/05/08 10:44:58;;;;;;;6.82;2.75;;;27.10;50.20;;;;;;5091472;28;20411;-69
2021/05/08 10:48:06;;;;;;;5.53;2.85;;;27.10;53.50;;;;;;5092717;28;20039;-68
2021/05/08 10:51:10;;;;;;;10.02;2.90;;;27.10;55.20;;;;;;5091672;28;20058;-67
2021/05/08 10:54:36;;;;;;;11.25;3.13;;;27.00;54.60;;;;;;5090507;28;20043;-68
2021/05/08 10:57:41;;;;;;;6.45;2.63;;;26.90;54.60;;;;;;5091915;28;20051;-69
2021/05/08 11:00:49;;;;;;;6.30;2.60;;;26.90;54.60;;;;;;5091275;28;20043;-68
2021/05/08 11:03:53;;;;;;;6.68;2.78;;;26.90;55.30;;;;;;5078920;28;20039;-67
2021/05/08 11:07:31;;;;;;;9.45;3.08;;;26.90;55.30;;;;;;5091321;28;20586;-67
2021/05/08 11:10:37;;;;;;;8.43;3.17;;;26.90;55.20;;;;;;5091232;28;20078;-66
2021/05/08 11:13:41;;;;;;;13.07;3.40;;;26.90;55.00;;;;;;5091294;28;20129;-68
2021/05/08 11:16:55;;;;;;;10.45;2.80;;;26.90;55.70;;;;;;5090686;28;20050;-69
2021/05/08 11:20:29;;;;;;;11.68;2.97;;;26.90;55.00;;;;;;5091354;28;20431;-66
2021/05/08 11:23:49;;;;;;;9.18;3.17;;;26.90;55.80;;;;;;5092233;28;20648;-68
2021/05/08 11:26:53;;;;;;;12.70;3.55;;;26.90;55.00;;;;;;5092647;28;20047;-67
2021/05/08 11:30:07;;;;;;;10.25;3.13;;;26.90;55.80;;;;;;5090978;28;20059;-69
2021/05/08 11:33:27;;;;;;;13.15;3.28;;;26.90;55.50;;;;;;5078901;28;20070;-68
2021/05/08 11:36:32;;;;;;;6.03;2.50;;;26.90;56.10;;;;;;5091040;28;20401;-67
2021/05/08 11:39:37;;;;;;;13.60;3.10;;;26.90;55.50;;;;;;5090018;28;20039;-67
2021/05/08 11:42:41;;;;;;;12.18;3.40;;;26.90;56.00;;;;;;5090760;28;20396;-70
2021/05/08 11:45:45;;;;;;;5.25;2.30;;;26.90;55.90;;;;;;5091133;28;20035;-67
2021/05/08 11:48:50;;;;;;;9.70;2.72;;;27.00;56.50;;;;;;5089977;28;20043;-69
2021/05/08 11:51:55;;;;;;;9.20;3.65;;;27.00;55.80;;;;;;5090883;28;20051;-68
2021/05/08 11:54:59;;;;;;;7.20;2.50;;;27.10;55.70;;;;;;5091452;28;20039;-67
2021/05/08 11:58:03;;;;;;;8.90;2.50;;;27.10;56.00;;;;;;5092926;28;20055;-67
2021/05/08 12:01:18;;;;;;;11.43;3.47;;;27.10;56.30;;;;;;5090779;28;20051;-69
2021/05/08 12:04:24;;;;;;;32.75;4.30;;;27.10;56.00;;;;;;5092506;28;20070;-69
2021/05/08 12:07:31;;;;;;;10.95;3.58;;;27.10;56.30;;;;;;5094269;28;20047;-68
2021/05/08 12:10:39;;;;;;;15.35;3.60;;;27.10;57.00;;;;;;5094363;28;20043;-68
2021/05/08 12:13:44;;;;;;;12.18;3.78;;;27.10;56.40;;;;;;5094421;28;20616;-68
2021/05/08 12:16:48;;;;;;;15.02;3.30;;;27.10;57.40;;;;;;5094508;28;20039;-67
2021/05/08 12:19:54;;;;;;;16.52;3.40;;;27.10;57.40;;;;;;5093071;28;20047;-68
2021/05/08 12:23:04;;;;;;;5.95;3.10;;;27.00;59.30;;;;;;5093920;28;20169;-68
2021/05/08 12:26:18;;;;;;;16.40;3.65;;;26.90;59.60;;;;;;5093017;28;20057;-70
2021/05/08 12:29:23;;;;;;;10.05;2.67;;;26.80;58.90;;;;;;5093003;28;20155;-67
2021/05/08 12:32:27;;;;;;;11.00;3.22;;;26.80;59.40;;;;;;5081568;28;20079;-68
2021/05/08 12:35:31;;;;;;;9.60;2.78;;;26.70;60.00;;;;;;5093909;28;20043;-68
2021/05/08 12:38:35;;;;;;;11.18;3.33;;;26.60;60.60;;;;;;5092839;28;20510;-67
2021/05/08 12:41:40;;;;;;;16.75;2.95;;;26.50;59.30;;;;;;5092728;28;20047;-68
2021/05/08 12:44:47;;;;;;;7.22;2.40;;;26.50;60.00;;;;;;5093495;28;20055;-68
2021/05/08 12:47:51;;;;;;;11.52;3.58;;;26.50;59.40;;;;;;5092791;28;20062;-68
2021/05/08 12:50:56;;;;;;;10.38;2.72;;;26.50;58.30;;;;;;5093116;28;20109;-68
2021/05/08 12:54:21;;;;;;;7.30;2.50;;;26.50;58.30;;;;;;5093236;28;20146;-69
2021/05/08 12:57:32;;;;;;;13.82;3.05;;;26.40;58.80;;;;;;5093188;28;20047;-66
2021/05/08 13:00:47;;;;;;;9.45;2.70;;;26.50;58.90;;;;;;5093566;28;20051;-68
2021/05/08 13:03:53;;;;;;;10.63;3.03;;;26.50;57.90;;;;;;5092928;28;20039;-67
2021/05/08 13:07:23;;;;;;;13.27;3.30;;;26.40;58.50;;;;;;5092038;28;20068;-68
2021/05/08 13:10:33;;;;;;;5.60;2.85;;;26.40;58.40;;;;;;5093231;28;20047;-68
2021/05/08 13:13:37;;;;;;;10.50;3.28;;;26.30;59.20;;;;;;5093312;28;20063;-68
2021/05/08 13:16:42;;;;;;;11.45;2.80;;;26.30;58.30;;;;;;5092124;28;20154;-67
2021/05/08 13:19:46;;;;;;;11.57;2.97;;;26.30;58.20;;;;;;5093123;28;20559;-67
2021/05/08 13:22:50;;;;;;;9.05;2.90;;;26.20;57.80;;;;;;5092853;28;20055;-67
2021/05/08 13:25:54;;;;;;;13.18;3.03;;;26.10;57.50;;;;;;5092389;28;20546;-67
2021/05/08 13:28:59;;;;;;;10.57;2.35;;;26.20;57.90;;;;;;5092803;28;20047;-69
2021/05/08 13:32:03;;;;;;;6.53;2.38;;;26.10;58.10;;;;;;5080063;28;20047;-69
2021/05/08 13:35:08;;;;;;;9.90;2.42;;;26.00;57.70;;;;;;5092708;28;20035;-68
2021/05/08 13:38:12;;;;;;;21.83;3.65;;;26.00;59.10;;;;;;5092447;28;20035;-67
2021/05/08 13:41:17;;;;;;;13.35;2.90;;;26.00;58.60;;;;;;5091884;28;20051;-67
2021/05/08 13:44:22;;;;;;;12.80;3.28;;;26.00;58.90;;;;;;5092448;28;20048;-68
2021/05/08 13:47:26;;;;;;;7.65;2.67;;;25.90;58.60;;;;;;5092167;28;20039;-69
2021/05/08 13:50:30;;;;;;;9.82;2.92;;;25.80;58.80;;;;;;5091693;28;20043;-68
2021/05/08 13:53:33;;;;;;;8.00;2.70;;;25.80;59.30;;;;;;5092233;28;20051;-67
2021/05/08 13:56:37;;;;;;;14.60;3.03;;;25.90;59.30;;;;;;5091844;28;20039;-68
2021/05/08 13:59:42;;;;;;;15.15;2.50;;;25.80;58.50;;;;;;5092287;28;20663;-68
2021/05/08 14:02:47;;;;;;;8.23;2.53;;;25.80;58.70;;;;;;5091846;28;20039;-68
2021/05/08 14:05:50;;;;;;;10.15;2.35;;;25.80;59.10;;;;;;5091688;28;20043;-73
2021/05/08 14:08:54;;;;;;;7.05;2.33;;;25.80;59.60;;;;;;5091883;28;20043;-68
2021/05/08 14:11:59;;;;;;;14.70;2.95;;;25.70;59.70;;;;;;5092590;28;20412;-67
2021/05/08 14:15:06;;;;;;;7.40;2.20;;;25.70;59.70;;;;;;5091217;28;20066;-68
2021/05/08 14:18:10;;;;;;;14.38;2.70;;;25.70;60.10;;;;;;5092224;28;20063;-68
2021/05/08 14:21:14;;;;;;;8.55;2.55;;;25.60;60.00;;;;;;5091674;28;20035;-67
2021/05/08 14:24:19;;;;;;;13.15;3.50;;;25.50;60.80;;;;;;5091318;28;20079;-67
2021/05/08 14:27:25;;;;;;;8.27;2.42;;;25.50;60.60;;;;;;5091429;28;20054;-68
2021/05/08 14:30:30;;;;;;;5.32;2.45;;;25.40;61.00;;;;;;5091383;28;20038;-67
2021/05/08 14:33:33;;;;;;;9.75;2.40;;;25.40;61.10;;;;;;5092223;28;20058;-68
2021/05/08 14:36:38;;;;;;;4.80;2.33;;;25.40;61.30;;;;;;5091572;28;20039;-66
2021/05/08 14:39:42;;;;;;;4.95;2.00;;;25.40;60.60;;;;;;5092371;28;20043;-68
2021/05/08 14:42:46;;;;;;;3.45;1.92;;;25.50;61.30;;;;;;5092446;28;20039;-67
2021/05/08 14:45:50;;;;;;;9.63;2.70;;;25.50;61.40;;;;;;5091417;28;20644;-69
2021/05/08 14:48:54;;;;;;;7.93;2.45;;;25.50;61.30;;;;;;5091264;28;20047;-67
2021/05/08 14:51:58;;;;;;;7.45;2.45;;;25.60;61.30;;;;;;5091666;28;20055;-67
2021/05/08 14:55:03;;;;;;;7.40;2.50;;;25.50;61.20;;;;;;5090304;28;20036;-68
2021/05/08 14:58:08;;;;;;;6.47;2.35;;;25.50;61.10;;;;;;5091505;28;20095;-67
2021/05/08 15:01:12;;;;;;;11.23;2.83;;;25.50;61.10;;;;;;5091405;28;20047;-66
2021/05/08 15:04:15;;;;;;;8.60;2.85;;;25.50;61.20;;;;;;5090192;28;20502;-68
2021/05/08 15:07:23;;;;;;;4.15;1.90;;;25.50;60.50;;;;;;5091076;28;20051;-68
2021/05/08 15:10:27;;;;;;;6.30;2.28;;;25.50;60.50;;;;;;5091148;28;20498;-68
2021/05/08 15:13:31;;;;;;;11.80;2.60;;;25.50;60.70;;;;;;5091303;28;20051;-67
2021/05/08 15:16:35;;;;;;;9.70;2.80;;;25.40;60.00;;;;;;5091563;28;20375;-67
2021/05/08 15:19:39;;;;;;;5.75;2.60;;;25.40;60.00;;;;;;5091506;28;20043;-67
2021/05/08 15:22:44;;;;;;;9.07;2.78;;;25.40;59.90;;;;;;5091604;28;20039;-67
2021/05/08 15:25:49;;;;;;;3.30;1.90;;;25.40;60.20;;;;;;5090036;28;20341;-66
2021/05/08 15:28:53;;;;;;;10.75;2.92;;;25.30;60.50;;;;;;5091381;28;20043;-67
2021/05/08 15:31:57;;;;;;;8.13;2.20;;;25.30;60.30;;;;;;5091385;28;20055;-67
2021/05/08 15:35:01;;;;;;;4.88;2.40;;;25.30;60.40;;;;;;5090779;28;20040;-67
2021/05/08 15:38:06;;;;;;;11.93;7.03;;;25.30;60.30;;;;;;5091203;28;20043;-67
2021/05/08 15:41:13;;;;;;;4.95;2.90;;;25.20;60.70;;;;;;5094938;28;20035;-68
2021/05/08 15:44:17;;;;;;;6.78;2.60;;;25.20;61.30;;;;;;5095027;28;20051;-68
2021/05/08 15:47:21;;;;;;;9.93;2.65;;;25.20;61.70;;;;;;5095126;28;20597;-69
2021/05/08 15:50:25;;;;;;;7.95;2.10;;;25.20;61.20;;;;;;5094952;28;20507;-69
2021/05/08 15:53:29;;;;;;;7.10;2.42;;;25.20;61.50;;;;;;5094329;28;20043;-68
2021/05/08 15:56:35;;;;;;;4.07;2.30;;;25.20;61.50;;;;;;5094731;28;20423;-66
2021/05/08 15:59:39;;;;;;;5.60;2.45;;;25.20;61.70;;;;;;5094815;28;20051;-67